GMME/RBA METAR and TAF weather

Enter ICAO airport designator
Station Type Date Time Source
GMME METAR 2019/12/08 14:00 UTC NOAA

GMME 081400Z 34007KT 5000 SCT016 16/14 Q1026 TEMPO 3500 BR


Station Type Date Time Source
GMME Decoded METAR 2019/12/08 14:00 UTC NOAA

Rabat-Sale, Morocco (GMME) 34-03N 006-46W 75M
Dec 08, 2019 - 09:00 AM EST / 2019.12.08 1400 UTC
Wind: from the NNW (340 degrees) at 8 MPH (7 KT):0
Visibility: 3 mile(s):0
Sky conditions: partly cloudy
Temperature: 60 F (16 C)
Dew Point: 57 F (14 C)
Relative Humidity: 87%
Pressure (altimeter): 30.30 in. Hg (1026 hPa)
ob: GMME 081400Z 34007KT 5000 SCT016 16/14 Q1026 TEMPO 3500 BR
cycle: 14

Station Type Date Time Source
GMME TAF 2019/12/08 12:18 UTC NOAA

TAF TAF GMME 081100Z 0812/0918 34010KT 6000 SCT016
BECMG 0818/0820 14004KT 3000 BR
TEMPO 0900/0909 0500 FG
BECMG 0909/0911 04010KT

Example: see airport list